sensor_id;sensor_type;location;lat;lon;timestamp;P1;durP1;ratioP1;P2;durP2;ratioP2
21060;SDS011;10689;50.836;3.266;2022-07-03T00:01:52;2.10;;;0.70;;
21060;SDS011;10689;50.836;3.266;2022-07-03T00:04:18;0.73;;;0.40;;
21060;SDS011;10689;50.836;3.266;2022-07-03T00:06:45;2.00;;;0.70;;
21060;SDS011;10689;50.836;3.266;2022-07-03T00:09:11;0.60;;;0.50;;
21060;SDS011;10689;50.836;3.266;2022-07-03T00:11:37;1.98;;;0.68;;
21060;SDS011;10689;50.836;3.266;2022-07-03T00:14:03;1.30;;;0.85;;
21060;SDS011;10689;50.836;3.266;2022-07-03T00:16:29;0.93;;;0.82;;
21060;SDS011;10689;50.836;3.266;2022-07-03T00:18:55;0.98;;;0.70;;
21060;SDS011;10689;50.836;3.266;2022-07-03T00:21:29;1.17;;;0.98;;
21060;SDS011;10689;50.836;3.266;2022-07-03T00:24:03;1.10;;;0.80;;
21060;SDS011;10689;50.836;3.266;2022-07-03T00:26:33;1.00;;;0.90;;
21060;SDS011;10689;50.836;3.266;2022-07-03T00:29:02;0.80;;;0.77;;
21060;SDS011;10689;50.836;3.266;2022-07-03T00:31:29;1.58;;;0.80;;
21060;SDS011;10689;50.836;3.266;2022-07-03T00:33:58;1.88;;;0.80;;
21060;SDS011;10689;50.836;3.266;2022-07-03T00:36:35;1.13;;;0.75;;
21060;SDS011;10689;50.836;3.266;2022-07-03T00:39:02;2.78;;;1.17;;
21060;SDS011;10689;50.836;3.266;2022-07-03T00:41:30;3.42;;;1.10;;
21060;SDS011;10689;50.836;3.266;2022-07-03T00:43:57;1.40;;;1.00;;
21060;SDS011;10689;50.836;3.266;2022-07-03T00:46:24;1.48;;;0.95;;
21060;SDS011;10689;50.836;3.266;2022-07-03T00:48:51;1.80;;;0.82;;
21060;SDS011;10689;50.836;3.266;2022-07-03T00:51:20;1.63;;;1.10;;
21060;SDS011;10689;50.836;3.266;2022-07-03T00:53:49;1.05;;;0.70;;
21060;SDS011;10689;50.836;3.266;2022-07-03T00:56:24;1.20;;;0.57;;
21060;SDS011;10689;50.836;3.266;2022-07-03T00:58:52;1.55;;;1.00;;
21060;SDS011;10689;50.836;3.266;2022-07-03T01:01:24;0.98;;;0.80;;
21060;SDS011;10689;50.836;3.266;2022-07-03T01:04:32;0.60;;;0.60;;
21060;SDS011;10689;50.836;3.266;2022-07-03T01:12:38;1.02;;;0.68;;
21060;SDS011;10689;50.836;3.266;2022-07-03T01:15:14;2.25;;;1.05;;
21060;SDS011;10689;50.836;3.266;2022-07-03T01:17:59;1.23;;;1.10;;
21060;SDS011;10689;50.836;3.266;2022-07-03T01:20:38;1.10;;;0.77;;
21060;SDS011;10689;50.836;3.266;2022-07-03T01:23:08;2.70;;;1.13;;
21060;SDS011;10689;50.836;3.266;2022-07-03T01:25:57;1.00;;;0.90;;
21060;SDS011;10689;50.836;3.266;2022-07-03T01:28:28;0.88;;;0.88;;
21060;SDS011;10689;50.836;3.266;2022-07-03T01:30:54;1.80;;;1.10;;
21060;SDS011;10689;50.836;3.266;2022-07-03T01:33:27;2.28;;;1.30;;
21060;SDS011;10689;50.836;3.266;2022-07-03T01:38:31;1.98;;;1.00;;
21060;SDS011;10689;50.836;3.266;2022-07-03T01:41:05;3.13;;;1.20;;
21060;SDS011;10689;50.836;3.266;2022-07-03T01:43:37;2.30;;;1.40;;
21060;SDS011;10689;50.836;3.266;2022-07-03T01:46:07;2.05;;;1.20;;
21060;SDS011;10689;50.836;3.266;2022-07-03T01:48:33;2.08;;;1.05;;
21060;SDS011;10689;50.836;3.266;2022-07-03T01:51:00;4.05;;;1.00;;
21060;SDS011;10689;50.836;3.266;2022-07-03T01:53:27;1.00;;;0.93;;
21060;SDS011;10689;50.836;3.266;2022-07-03T01:55:55;1.70;;;1.40;;
21060;SDS011;10689;50.836;3.266;2022-07-03T01:58:22;2.67;;;1.50;;
21060;SDS011;10689;50.836;3.266;2022-07-03T02:03:31;1.63;;;1.45;;
21060;SDS011;10689;50.836;3.266;2022-07-03T02:06:02;2.47;;;1.38;;
21060;SDS011;10689;50.836;3.266;2022-07-03T02:08:41;2.88;;;1.60;;
21060;SDS011;10689;50.836;3.266;2022-07-03T02:11:19;3.15;;;1.65;;
21060;SDS011;10689;50.836;3.266;2022-07-03T02:13:50;1.42;;;1.33;;
21060;SDS011;10689;50.836;3.266;2022-07-03T02:16:22;2.25;;;1.77;;
21060;SDS011;10689;50.836;3.266;2022-07-03T02:19:11;2.58;;;1.80;;
21060;SDS011;10689;50.836;3.266;2022-07-03T02:21:36;2.55;;;1.40;;
21060;SDS011;10689;50.836;3.266;2022-07-03T02:26:46;2.08;;;1.40;;
21060;SDS011;10689;50.836;3.266;2022-07-03T02:29:36;2.03;;;1.60;;
21060;SDS011;10689;50.836;3.266;2022-07-03T02:32:12;1.67;;;1.58;;
21060;SDS011;10689;50.836;3.266;2022-07-03T02:34:47;1.67;;;1.55;;
21060;SDS011;10689;50.836;3.266;2022-07-03T02:37:20;3.08;;;1.70;;
21060;SDS011;10689;50.836;3.266;2022-07-03T02:39:50;3.65;;;1.77;;
21060;SDS011;10689;50.836;3.266;2022-07-03T02:42:39;2.15;;;1.55;;
21060;SDS011;10689;50.836;3.266;2022-07-03T02:45:10;2.92;;;1.80;;
21060;SDS011;10689;50.836;3.266;2022-07-03T02:50:03;2.50;;;1.73;;
21060;SDS011;10689;50.836;3.266;2022-07-03T02:55:22;3.80;;;2.03;;
21060;SDS011;10689;50.836;3.266;2022-07-03T03:00:39;3.78;;;2.10;;
21060;SDS011;10689;50.836;3.266;2022-07-03T03:03:12;1.88;;;1.50;;
21060;SDS011;10689;50.836;3.266;2022-07-03T03:05:40;2.70;;;1.75;;
21060;SDS011;10689;50.836;3.266;2022-07-03T03:14:08;4.07;;;1.90;;
21060;SDS011;10689;50.836;3.266;2022-07-03T03:16:36;2.45;;;1.92;;
21060;SDS011;10689;50.836;3.266;2022-07-03T03:19:06;3.58;;;2.05;;
21060;SDS011;10689;50.836;3.266;2022-07-03T03:21:32;4.43;;;2.22;;
21060;SDS011;10689;50.836;3.266;2022-07-03T03:24:07;4.18;;;2.33;;
21060;SDS011;10689;50.836;3.266;2022-07-03T03:26:34;2.50;;;2.28;;
21060;SDS011;10689;50.836;3.266;2022-07-03T03:28:59;5.60;;;2.63;;
21060;SDS011;10689;50.836;3.266;2022-07-03T03:31:25;2.53;;;2.30;;
21060;SDS011;10689;50.836;3.266;2022-07-03T03:33:52;5.05;;;2.40;;
21060;SDS011;10689;50.836;3.266;2022-07-03T03:36:19;2.50;;;2.30;;
21060;SDS011;10689;50.836;3.266;2022-07-03T03:38:46;3.80;;;2.28;;
21060;SDS011;10689;50.836;3.266;2022-07-03T03:41:13;3.60;;;2.72;;
21060;SDS011;10689;50.836;3.266;2022-07-03T03:43:39;3.90;;;3.00;;
21060;SDS011;10689;50.836;3.266;2022-07-03T03:46:05;3.92;;;2.40;;
21060;SDS011;10689;50.836;3.266;2022-07-03T03:48:31;3.25;;;2.90;;
21060;SDS011;10689;50.836;3.266;2022-07-03T03:50:58;3.53;;;2.67;;
21060;SDS011;10689;50.836;3.266;2022-07-03T03:53:25;3.17;;;2.47;;
21060;SDS011;10689;50.836;3.266;2022-07-03T03:56:05;3.95;;;2.63;;
21060;SDS011;10689;50.836;3.266;2022-07-03T03:58:33;3.17;;;2.50;;
21060;SDS011;10689;50.836;3.266;2022-07-03T04:01:01;3.53;;;2.50;;
21060;SDS011;10689;50.836;3.266;2022-07-03T04:03:28;4.57;;;3.10;;
21060;SDS011;10689;50.836;3.266;2022-07-03T04:05:54;3.67;;;2.97;;
21060;SDS011;10689;50.836;3.266;2022-07-03T04:08:21;6.72;;;3.10;;
21060;SDS011;10689;50.836;3.266;2022-07-03T04:10:47;7.70;;;3.45;;
21060;SDS011;10689;50.836;3.266;2022-07-03T04:13:14;4.75;;;2.88;;
21060;SDS011;10689;50.836;3.266;2022-07-03T04:15:40;5.38;;;2.97;;
21060;SDS011;10689;50.836;3.266;2022-07-03T04:18:07;7.15;;;3.72;;
21060;SDS011;10689;50.836;3.266;2022-07-03T04:20:33;8.95;;;3.40;;
21060;SDS011;10689;50.836;3.266;2022-07-03T04:23:00;5.95;;;3.08;;
21060;SDS011;10689;50.836;3.266;2022-07-03T04:25:26;7.03;;;2.53;;
21060;SDS011;10689;50.836;3.266;2022-07-03T04:27:52;6.35;;;3.30;;
21060;SDS011;10689;50.836;3.266;2022-07-03T04:30:18;4.70;;;3.10;;
21060;SDS011;10689;50.836;3.266;2022-07-03T04:32:44;4.88;;;2.60;;
21060;SDS011;10689;50.836;3.266;2022-07-03T04:35:10;4.95;;;2.70;;
21060;SDS011;10689;50.836;3.266;2022-07-03T04:37:36;6.38;;;2.30;;
21060;SDS011;10689;50.836;3.266;2022-07-03T04:40:02;5.38;;;3.15;;
21060;SDS011;10689;50.836;3.266;2022-07-03T04:42:28;4.28;;;2.60;;
21060;SDS011;10689;50.836;3.266;2022-07-03T04:44:53;2.72;;;2.20;;
21060;SDS011;10689;50.836;3.266;2022-07-03T04:47:19;4.03;;;2.33;;
21060;SDS011;10689;50.836;3.266;2022-07-03T04:49:45;4.50;;;2.28;;
21060;SDS011;10689;50.836;3.266;2022-07-03T04:52:11;2.28;;;2.05;;
21060;SDS011;10689;50.836;3.266;2022-07-03T04:54:37;3.42;;;2.30;;
21060;SDS011;10689;50.836;3.266;2022-07-03T04:57:03;2.83;;;1.90;;
21060;SDS011;10689;50.836;3.266;2022-07-03T04:59:30;2.45;;;1.95;;
21060;SDS011;10689;50.836;3.266;2022-07-03T05:01:56;2.35;;;2.00;;
21060;SDS011;10689;50.836;3.266;2022-07-03T05:04:22;3.78;;;2.47;;
21060;SDS011;10689;50.836;3.266;2022-07-03T05:06:48;3.78;;;2.25;;
21060;SDS011;10689;50.836;3.266;2022-07-03T05:09:13;3.97;;;2.45;;
21060;SDS011;10689;50.836;3.266;2022-07-03T05:11:39;3.75;;;2.75;;
21060;SDS011;10689;50.836;3.266;2022-07-03T05:14:06;5.00;;;2.28;;
21060;SDS011;10689;50.836;3.266;2022-07-03T05:16:33;5.82;;;2.50;;
21060;SDS011;10689;50.836;3.266;2022-07-03T05:18:59;3.60;;;2.35;;
21060;SDS011;10689;50.836;3.266;2022-07-03T05:21:25;4.07;;;2.15;;
21060;SDS011;10689;50.836;3.266;2022-07-03T05:23:51;3.22;;;2.05;;
21060;SDS011;10689;50.836;3.266;2022-07-03T05:26:16;5.50;;;2.30;;
21060;SDS011;10689;50.836;3.266;2022-07-03T05:28:43;1.85;;;1.75;;
21060;SDS011;10689;50.836;3.266;2022-07-03T05:31:09;2.92;;;1.83;;
21060;SDS011;10689;50.836;3.266;2022-07-03T05:33:35;2.75;;;1.73;;
21060;SDS011;10689;50.836;3.266;2022-07-03T05:36:00;3.80;;;1.75;;
21060;SDS011;10689;50.836;3.266;2022-07-03T05:38:27;5.03;;;2.47;;
21060;SDS011;10689;50.836;3.266;2022-07-03T05:41:11;2.55;;;1.65;;
21060;SDS011;10689;50.836;3.266;2022-07-03T05:43:38;2.80;;;1.70;;
21060;SDS011;10689;50.836;3.266;2022-07-03T05:46:03;4.13;;;1.83;;
21060;SDS011;10689;50.836;3.266;2022-07-03T05:48:29;2.25;;;1.60;;
21060;SDS011;10689;50.836;3.266;2022-07-03T05:50:55;4.17;;;1.93;;
21060;SDS011;10689;50.836;3.266;2022-07-03T05:53:21;4.07;;;1.80;;
21060;SDS011;10689;50.836;3.266;2022-07-03T05:55:47;3.17;;;1.63;;
21060;SDS011;10689;50.836;3.266;2022-07-03T05:58:13;2.72;;;1.48;;
21060;SDS011;10689;50.836;3.266;2022-07-03T06:00:39;2.92;;;1.67;;
21060;SDS011;10689;50.836;3.266;2022-07-03T06:03:04;3.35;;;1.60;;
21060;SDS011;10689;50.836;3.266;2022-07-03T06:05:31;3.88;;;2.20;;
21060;SDS011;10689;50.836;3.266;2022-07-03T06:07:57;4.28;;;1.90;;
21060;SDS011;10689;50.836;3.266;2022-07-03T06:10:24;5.93;;;2.53;;
21060;SDS011;10689;50.836;3.266;2022-07-03T06:12:50;4.68;;;2.83;;
21060;SDS011;10689;50.836;3.266;2022-07-03T06:15:15;4.05;;;2.47;;
21060;SDS011;10689;50.836;3.266;2022-07-03T06:17:42;6.20;;;2.35;;
21060;SDS011;10689;50.836;3.266;2022-07-03T06:20:09;3.47;;;2.20;;
21060;SDS011;10689;50.836;3.266;2022-07-03T06:22:35;4.65;;;2.05;;
21060;SDS011;10689;50.836;3.266;2022-07-03T06:25:01;1.77;;;1.67;;
21060;SDS011;10689;50.836;3.266;2022-07-03T06:27:27;2.67;;;1.48;;
21060;SDS011;10689;50.836;3.266;2022-07-03T06:29:53;5.22;;;1.80;;
21060;SDS011;10689;50.836;3.266;2022-07-03T06:32:19;3.17;;;2.00;;
21060;SDS011;10689;50.836;3.266;2022-07-03T06:34:45;4.70;;;1.75;;
21060;SDS011;10689;50.836;3.266;2022-07-03T06:37:11;3.97;;;2.05;;
21060;SDS011;10689;50.836;3.266;2022-07-03T06:39:37;4.45;;;2.38;;
21060;SDS011;10689;50.836;3.266;2022-07-03T06:42:03;3.38;;;1.77;;
21060;SDS011;10689;50.836;3.266;2022-07-03T06:44:29;1.60;;;1.50;;
21060;SDS011;10689;50.836;3.266;2022-07-03T06:46:55;3.13;;;1.95;;
21060;SDS011;10689;50.836;3.266;2022-07-03T06:49:22;2.35;;;1.50;;
21060;SDS011;10689;50.836;3.266;2022-07-03T06:51:48;3.97;;;2.22;;
21060;SDS011;10689;50.836;3.266;2022-07-03T06:54:14;4.80;;;2.45;;
21060;SDS011;10689;50.836;3.266;2022-07-03T06:56:39;3.15;;;1.98;;
21060;SDS011;10689;50.836;3.266;2022-07-03T06:59:08;2.67;;;1.80;;
21060;SDS011;10689;50.836;3.266;2022-07-03T07:01:34;6.82;;;2.33;;
21060;SDS011;10689;50.836;3.266;2022-07-03T07:04:00;4.15;;;2.00;;
21060;SDS011;10689;50.836;3.266;2022-07-03T07:06:27;4.55;;;2.10;;
21060;SDS011;10689;50.836;3.266;2022-07-03T07:08:52;3.88;;;1.90;;
21060;SDS011;10689;50.836;3.266;2022-07-03T07:11:18;4.40;;;2.67;;
21060;SDS011;10689;50.836;3.266;2022-07-03T07:13:44;5.70;;;1.80;;
21060;SDS011;10689;50.836;3.266;2022-07-03T07:16:09;5.05;;;1.60;;
21060;SDS011;10689;50.836;3.266;2022-07-03T07:18:35;4.80;;;1.80;;
21060;SDS011;10689;50.836;3.266;2022-07-03T07:21:01;1.65;;;1.15;;
21060;SDS011;10689;50.836;3.266;2022-07-03T07:23:27;2.63;;;1.45;;
21060;SDS011;10689;50.836;3.266;2022-07-03T07:25:52;2.30;;;1.20;;
21060;SDS011;10689;50.836;3.266;2022-07-03T07:28:18;7.60;;;2.75;;
21060;SDS011;10689;50.836;3.266;2022-07-03T07:30:44;3.15;;;1.60;;
21060;SDS011;10689;50.836;3.266;2022-07-03T07:33:09;3.60;;;1.58;;
21060;SDS011;10689;50.836;3.266;2022-07-03T07:35:35;3.22;;;2.83;;
21060;SDS011;10689;50.836;3.266;2022-07-03T07:38:02;5.65;;;2.50;;
21060;SDS011;10689;50.836;3.266;2022-07-03T07:40:27;3.50;;;2.17;;
21060;SDS011;10689;50.836;3.266;2022-07-03T07:42:53;8.57;;;2.25;;
21060;SDS011;10689;50.836;3.266;2022-07-03T07:45:19;5.43;;;2.00;;
21060;SDS011;10689;50.836;3.266;2022-07-03T07:47:45;3.55;;;2.10;;
21060;SDS011;10689;50.836;3.266;2022-07-03T07:50:10;3.15;;;2.47;;
21060;SDS011;10689;50.836;3.266;2022-07-03T07:52:37;3.80;;;2.08;;
21060;SDS011;10689;50.836;3.266;2022-07-03T07:55:03;4.28;;;1.80;;
21060;SDS011;10689;50.836;3.266;2022-07-03T07:57:36;3.67;;;1.83;;
21060;SDS011;10689;50.836;3.266;2022-07-03T08:00:06;1.83;;;1.30;;
21060;SDS011;10689;50.836;3.266;2022-07-03T08:02:36;5.97;;;2.00;;
21060;SDS011;10689;50.836;3.266;2022-07-03T08:05:20;3.50;;;1.20;;
21060;SDS011;10689;50.836;3.266;2022-07-03T08:08:01;4.25;;;1.55;;
21060;SDS011;10689;50.836;3.266;2022-07-03T08:10:33;5.72;;;1.60;;
21060;SDS011;10689;50.836;3.266;2022-07-03T08:13:06;2.03;;;1.45;;
21060;SDS011;10689;50.836;3.266;2022-07-03T08:15:33;1.95;;;1.35;;
21060;SDS011;10689;50.836;3.266;2022-07-03T08:18:00;1.85;;;1.33;;
21060;SDS011;10689;50.836;3.266;2022-07-03T08:20:25;2.63;;;1.67;;
21060;SDS011;10689;50.836;3.266;2022-07-03T08:22:51;2.40;;;1.73;;
21060;SDS011;10689;50.836;3.266;2022-07-03T08:25:17;3.88;;;1.60;;
21060;SDS011;10689;50.836;3.266;2022-07-03T08:27:43;2.20;;;1.20;;
21060;SDS011;10689;50.836;3.266;2022-07-03T08:30:09;2.15;;;0.98;;
21060;SDS011;10689;50.836;3.266;2022-07-03T08:32:35;5.72;;;1.42;;
21060;SDS011;10689;50.836;3.266;2022-07-03T08:35:00;1.58;;;1.15;;
21060;SDS011;10689;50.836;3.266;2022-07-03T08:37:26;3.92;;;1.60;;
21060;SDS011;10689;50.836;3.266;2022-07-03T08:39:52;2.20;;;0.90;;
21060;SDS011;10689;50.836;3.266;2022-07-03T08:42:18;3.05;;;0.63;;
21060;SDS011;10689;50.836;3.266;2022-07-03T08:44:45;1.27;;;0.70;;
21060;SDS011;10689;50.836;3.266;2022-07-03T08:47:11;5.55;;;1.42;;
21060;SDS011;10689;50.836;3.266;2022-07-03T08:49:38;1.88;;;0.70;;
21060;SDS011;10689;50.836;3.266;2022-07-03T08:52:04;2.67;;;1.10;;
21060;SDS011;10689;50.836;3.266;2022-07-03T08:54:32;4.43;;;0.65;;
21060;SDS011;10689;50.836;3.266;2022-07-03T08:57:01;1.38;;;0.98;;
21060;SDS011;10689;50.836;3.266;2022-07-03T08:59:30;2.55;;;1.10;;
21060;SDS011;10689;50.836;3.266;2022-07-03T09:02:02;1.33;;;0.95;;
21060;SDS011;10689;50.836;3.266;2022-07-03T09:04:30;3.80;;;1.13;;
21060;SDS011;10689;50.836;3.266;2022-07-03T09:06:56;2.70;;;1.33;;
21060;SDS011;10689;50.836;3.266;2022-07-03T09:09:24;1.30;;;0.90;;
21060;SDS011;10689;50.836;3.266;2022-07-03T09:11:50;1.98;;;0.85;;
21060;SDS011;10689;50.836;3.266;2022-07-03T09:14:16;0.65;;;0.55;;
21060;SDS011;10689;50.836;3.266;2022-07-03T09:16:42;1.48;;;0.98;;
21060;SDS011;10689;50.836;3.266;2022-07-03T09:19:08;2.08;;;0.93;;
21060;SDS011;10689;50.836;3.266;2022-07-03T09:21:37;3.58;;;0.77;;
21060;SDS011;10689;50.836;3.266;2022-07-03T09:24:07;0.65;;;0.63;;
21060;SDS011;10689;50.836;3.266;2022-07-03T09:26:34;1.92;;;1.00;;
21060;SDS011;10689;50.836;3.266;2022-07-03T09:29:00;0.70;;;0.45;;
21060;SDS011;10689;50.836;3.266;2022-07-03T09:31:28;2.83;;;0.95;;
21060;SDS011;10689;50.836;3.266;2022-07-03T09:36:37;1.45;;;0.85;;
21060;SDS011;10689;50.836;3.266;2022-07-03T09:39:24;1.23;;;1.00;;
21060;SDS011;10689;50.836;3.266;2022-07-03T09:55:01;2.42;;;0.85;;
21060;SDS011;10689;50.836;3.266;2022-07-03T10:05:34;1.65;;;0.57;;
21060;SDS011;10689;50.836;3.266;2022-07-03T10:10:31;2.80;;;0.70;;
21060;SDS011;10689;50.836;3.266;2022-07-03T10:13:02;1.63;;;0.80;;
21060;SDS011;10689;50.836;3.266;2022-07-03T10:15:29;2.83;;;1.02;;
21060;SDS011;10689;50.836;3.266;2022-07-03T10:17:57;1.55;;;0.57;;
21060;SDS011;10689;50.836;3.266;2022-07-03T10:20:26;0.45;;;0.45;;
21060;SDS011;10689;50.836;3.266;2022-07-03T10:22:52;2.55;;;0.75;;
21060;SDS011;10689;50.836;3.266;2022-07-03T10:25:18;0.50;;;0.47;;
21060;SDS011;10689;50.836;3.266;2022-07-03T10:27:44;1.15;;;0.60;;
21060;SDS011;10689;50.836;3.266;2022-07-03T10:30:12;1.55;;;0.70;;
21060;SDS011;10689;50.836;3.266;2022-07-03T10:32:46;2.25;;;0.75;;
21060;SDS011;10689;50.836;3.266;2022-07-03T10:35:20;0.60;;;0.60;;
21060;SDS011;10689;50.836;3.266;2022-07-03T10:37:53;1.95;;;0.93;;
21060;SDS011;10689;50.836;3.266;2022-07-03T10:40:44;4.60;;;0.90;;
21060;SDS011;10689;50.836;3.266;2022-07-03T10:43:40;1.10;;;0.70;;
21060;SDS011;10689;50.836;3.266;2022-07-03T10:46:27;1.48;;;0.70;;
21060;SDS011;10689;50.836;3.266;2022-07-03T10:51:27;0.63;;;0.60;;
21060;SDS011;10689;50.836;3.266;2022-07-03T11:02:18;2.05;;;0.63;;
21060;SDS011;10689;50.836;3.266;2022-07-03T11:07:22;0.77;;;0.30;;
21060;SDS011;10689;50.836;3.266;2022-07-03T11:25:59;2.35;;;0.43;;
21060;SDS011;10689;50.836;3.266;2022-07-03T11:38:44;1.48;;;0.60;;
21060;SDS011;10689;50.836;3.266;2022-07-03T11:41:11;0.80;;;0.55;;
21060;SDS011;10689;50.836;3.266;2022-07-03T11:43:45;0.70;;;0.63;;
21060;SDS011;10689;50.836;3.266;2022-07-03T11:46:21;1.95;;;0.65;;
21060;SDS011;10689;50.836;3.266;2022-07-03T11:48:48;1.45;;;0.90;;
21060;SDS011;10689;50.836;3.266;2022-07-03T11:51:14;1.92;;;1.00;;
21060;SDS011;10689;50.836;3.266;2022-07-03T11:53:40;1.20;;;0.63;;
21060;SDS011;10689;50.836;3.266;2022-07-03T11:56:08;1.92;;;0.52;;
21060;SDS011;10689;50.836;3.266;2022-07-03T11:58:45;1.98;;;0.73;;
21060;SDS011;10689;50.836;3.266;2022-07-03T12:03:47;4.82;;;1.20;;
21060;SDS011;10689;50.836;3.266;2022-07-03T12:06:13;0.50;;;0.50;;
21060;SDS011;10689;50.836;3.266;2022-07-03T12:08:39;4.35;;;1.23;;
21060;SDS011;10689;50.836;3.266;2022-07-03T12:11:07;2.00;;;1.42;;
21060;SDS011;10689;50.836;3.266;2022-07-03T12:13:34;0.30;;;0.30;;
21060;SDS011;10689;50.836;3.266;2022-07-03T12:18:44;1.40;;;0.80;;
21060;SDS011;10689;50.836;3.266;2022-07-03T12:21:19;1.42;;;1.05;;
21060;SDS011;10689;50.836;3.266;2022-07-03T12:26:26;1.33;;;0.55;;
21060;SDS011;10689;50.836;3.266;2022-07-03T12:29:15;0.52;;;0.43;;
21060;SDS011;10689;50.836;3.266;2022-07-03T12:31:43;0.68;;;0.40;;
21060;SDS011;10689;50.836;3.266;2022-07-03T12:34:13;0.95;;;0.30;;
21060;SDS011;10689;50.836;3.266;2022-07-03T12:36:40;1.85;;;0.38;;
21060;SDS011;10689;50.836;3.266;2022-07-03T12:39:18;1.98;;;0.60;;
21060;SDS011;10689;50.836;3.266;2022-07-03T12:41:44;1.48;;;0.60;;
21060;SDS011;10689;50.836;3.266;2022-07-03T12:44:09;0.60;;;0.50;;
21060;SDS011;10689;50.836;3.266;2022-07-03T12:46:35;0.20;;;0.20;;
21060;SDS011;10689;50.836;3.266;2022-07-03T12:49:12;1.15;;;0.45;;
21060;SDS011;10689;50.836;3.266;2022-07-03T12:51:52;0.85;;;0.40;;
21060;SDS011;10689;50.836;3.266;2022-07-03T12:54:22;0.63;;;0.30;;
21060;SDS011;10689;50.836;3.266;2022-07-03T12:57:06;0.75;;;0.30;;
21060;SDS011;10689;50.836;3.266;2022-07-03T13:00:01;0.60;;;0.50;;
21060;SDS011;10689;50.836;3.266;2022-07-03T13:02:31;0.68;;;0.40;;
21060;SDS011;10689;50.836;3.266;2022-07-03T13:04:58;0.65;;;0.40;;
21060;SDS011;10689;50.836;3.266;2022-07-03T13:07:29;0.43;;;0.30;;
21060;SDS011;10689;50.836;3.266;2022-07-03T13:09:55;0.20;;;0.20;;
21060;SDS011;10689;50.836;3.266;2022-07-03T13:12:25;1.75;;;0.73;;
21060;SDS011;10689;50.836;3.266;2022-07-03T13:14:54;1.73;;;0.68;;
21060;SDS011;10689;50.836;3.266;2022-07-03T13:17:47;3.10;;;0.80;;
21060;SDS011;10689;50.836;3.266;2022-07-03T13:20:18;1.65;;;0.60;;
21060;SDS011;10689;50.836;3.266;2022-07-03T13:22:48;1.27;;;0.43;;
21060;SDS011;10689;50.836;3.266;2022-07-03T13:25:17;1.27;;;0.50;;
21060;SDS011;10689;50.836;3.266;2022-07-03T13:27:43;2.05;;;0.63;;
21060;SDS011;10689;50.836;3.266;2022-07-03T13:30:10;0.45;;;0.30;;
21060;SDS011;10689;50.836;3.266;2022-07-03T13:32:37;0.35;;;0.30;;
21060;SDS011;10689;50.836;3.266;2022-07-03T13:35:03;1.10;;;0.65;;
21060;SDS011;10689;50.836;3.266;2022-07-03T13:37:30;1.27;;;0.35;;
21060;SDS011;10689;50.836;3.266;2022-07-03T13:39:56;2.13;;;0.70;;
21060;SDS011;10689;50.836;3.266;2022-07-03T13:42:22;1.00;;;0.70;;
21060;SDS011;10689;50.836;3.266;2022-07-03T13:44:47;0.30;;;0.30;;
21060;SDS011;10689;50.836;3.266;2022-07-03T13:47:15;0.85;;;0.40;;
21060;SDS011;10689;50.836;3.266;2022-07-03T13:49:41;0.60;;;0.55;;
21060;SDS011;10689;50.836;3.266;2022-07-03T13:52:06;0.30;;;0.30;;
21060;SDS011;10689;50.836;3.266;2022-07-03T13:54:32;0.98;;;0.85;;
21060;SDS011;10689;50.836;3.266;2022-07-03T13:56:58;2.17;;;0.40;;
21060;SDS011;10689;50.836;3.266;2022-07-03T13:59:24;0.35;;;0.35;;
21060;SDS011;10689;50.836;3.266;2022-07-03T14:01:50;0.60;;;0.30;;
21060;SDS011;10689;50.836;3.266;2022-07-03T14:04:15;0.82;;;0.30;;
21060;SDS011;10689;50.836;3.266;2022-07-03T14:06:41;0.45;;;0.30;;
21060;SDS011;10689;50.836;3.266;2022-07-03T14:09:07;0.57;;;0.35;;
21060;SDS011;10689;50.836;3.266;2022-07-03T14:11:33;0.43;;;0.40;;
21060;SDS011;10689;50.836;3.266;2022-07-03T14:13:58;1.48;;;0.50;;
21060;SDS011;10689;50.836;3.266;2022-07-03T14:16:24;0.63;;;0.30;;
21060;SDS011;10689;50.836;3.266;2022-07-03T14:18:50;0.40;;;0.40;;
21060;SDS011;10689;50.836;3.266;2022-07-03T14:21:15;0.50;;;0.38;;
21060;SDS011;10689;50.836;3.266;2022-07-03T14:23:41;1.52;;;0.30;;
21060;SDS011;10689;50.836;3.266;2022-07-03T14:26:07;1.77;;;0.40;;
21060;SDS011;10689;50.836;3.266;2022-07-03T14:28:32;1.35;;;0.40;;
21060;SDS011;10689;50.836;3.266;2022-07-03T14:31:17;0.43;;;0.30;;
21060;SDS011;10689;50.836;3.266;2022-07-03T14:33:49;0.35;;;0.35;;
21060;SDS011;10689;50.836;3.266;2022-07-03T14:36:15;0.30;;;0.30;;
21060;SDS011;10689;50.836;3.266;2022-07-03T14:38:41;1.52;;;0.52;;
21060;SDS011;10689;50.836;3.266;2022-07-03T14:41:07;0.20;;;0.20;;
21060;SDS011;10689;50.836;3.266;2022-07-03T14:43:32;3.22;;;0.38;;
21060;SDS011;10689;50.836;3.266;2022-07-03T14:45:58;0.57;;;0.30;;
21060;SDS011;10689;50.836;3.266;2022-07-03T14:48:26;2.30;;;0.30;;
21060;SDS011;10689;50.836;3.266;2022-07-03T14:50:52;0.30;;;0.20;;
21060;SDS011;10689;50.836;3.266;2022-07-03T14:53:18;1.23;;;0.30;;
21060;SDS011;10689;50.836;3.266;2022-07-03T14:55:44;3.72;;;0.45;;
21060;SDS011;10689;50.836;3.266;2022-07-03T15:00:48;0.35;;;0.20;;
21060;SDS011;10689;50.836;3.266;2022-07-03T15:03:19;0.20;;;0.20;;
21060;SDS011;10689;50.836;3.266;2022-07-03T15:05:56;2.10;;;0.50;;
21060;SDS011;10689;50.836;3.266;2022-07-03T15:08:27;0.82;;;0.35;;
21060;SDS011;10689;50.836;3.266;2022-07-03T15:10:55;1.95;;;0.60;;
21060;SDS011;10689;50.836;3.266;2022-07-03T15:13:26;3.15;;;0.50;;
21060;SDS011;10689;50.836;3.266;2022-07-03T15:15:52;1.85;;;0.40;;
21060;SDS011;10689;50.836;3.266;2022-07-03T15:18:20;1.27;;;0.88;;
21060;SDS011;10689;50.836;3.266;2022-07-03T15:20:46;2.20;;;0.68;;
21060;SDS011;10689;50.836;3.266;2022-07-03T15:23:14;0.50;;;0.40;;
21060;SDS011;10689;50.836;3.266;2022-07-03T15:25:43;1.10;;;0.57;;
21060;SDS011;10689;50.836;3.266;2022-07-03T15:28:11;1.17;;;0.43;;
21060;SDS011;10689;50.836;3.266;2022-07-03T15:30:44;1.48;;;0.50;;
21060;SDS011;10689;50.836;3.266;2022-07-03T15:33:12;0.65;;;0.32;;
21060;SDS011;10689;50.836;3.266;2022-07-03T15:35:38;0.75;;;0.40;;
21060;SDS011;10689;50.836;3.266;2022-07-03T15:38:17;0.43;;;0.25;;
21060;SDS011;10689;50.836;3.266;2022-07-03T15:40:53;0.95;;;0.50;;
21060;SDS011;10689;50.836;3.266;2022-07-03T15:49:06;1.77;;;0.57;;
21060;SDS011;10689;50.836;3.266;2022-07-03T15:51:43;1.25;;;0.60;;
21060;SDS011;10689;50.836;3.266;2022-07-03T15:59:43;2.70;;;1.08;;
21060;SDS011;10689;50.836;3.266;2022-07-03T16:02:19;1.48;;;0.60;;
21060;SDS011;10689;50.836;3.266;2022-07-03T16:05:06;0.77;;;0.45;;
21060;SDS011;10689;50.836;3.266;2022-07-03T16:07:37;3.03;;;0.75;;
21060;SDS011;10689;50.836;3.266;2022-07-03T16:10:08;1.65;;;0.60;;
21060;SDS011;10689;50.836;3.266;2022-07-03T16:12:35;2.60;;;0.50;;
21060;SDS011;10689;50.836;3.266;2022-07-03T16:15:05;2.42;;;0.65;;
21060;SDS011;10689;50.836;3.266;2022-07-03T16:17:32;2.10;;;0.50;;
21060;SDS011;10689;50.836;3.266;2022-07-03T16:19:59;4.10;;;0.85;;
21060;SDS011;10689;50.836;3.266;2022-07-03T16:22:26;1.70;;;0.50;;
21060;SDS011;10689;50.836;3.266;2022-07-03T16:24:55;1.83;;;0.85;;
21060;SDS011;10689;50.836;3.266;2022-07-03T16:27:23;1.80;;;0.63;;
21060;SDS011;10689;50.836;3.266;2022-07-03T16:29:49;2.80;;;0.82;;
21060;SDS011;10689;50.836;3.266;2022-07-03T16:32:18;3.25;;;0.55;;
21060;SDS011;10689;50.836;3.266;2022-07-03T16:35:02;1.15;;;0.40;;
21060;SDS011;10689;50.836;3.266;2022-07-03T16:40:12;1.92;;;0.40;;
21060;SDS011;10689;50.836;3.266;2022-07-03T16:42:39;1.48;;;0.50;;
21060;SDS011;10689;50.836;3.266;2022-07-03T16:45:10;1.20;;;0.40;;
21060;SDS011;10689;50.836;3.266;2022-07-03T16:47:41;1.10;;;0.40;;
21060;SDS011;10689;50.836;3.266;2022-07-03T16:50:10;1.27;;;0.40;;
21060;SDS011;10689;50.836;3.266;2022-07-03T16:52:40;0.98;;;0.47;;
21060;SDS011;10689;50.836;3.266;2022-07-03T16:55:10;2.03;;;0.50;;
21060;SDS011;10689;50.836;3.266;2022-07-03T16:57:48;1.05;;;0.52;;